sensor_id;sensor_type;location;lat;lon;timestamp;P1;durP1;ratioP1;P2;durP2;ratioP2
1344;SDS011;15375;48.540;9.268;2023-04-03T00:01:01;4.77;;;4.37;;
1344;SDS011;15375;48.540;9.268;2023-04-03T00:03:27;4.90;;;3.90;;
1344;SDS011;15375;48.540;9.268;2023-04-03T00:05:52;5.17;;;4.67;;
1344;SDS011;15375;48.540;9.268;2023-04-03T00:08:18;4.03;;;3.63;;
1344;SDS011;15375;48.540;9.268;2023-04-03T00:10:43;6.30;;;3.80;;
1344;SDS011;15375;48.540;9.268;2023-04-03T00:13:09;5.70;;;3.93;;
1344;SDS011;15375;48.540;9.268;2023-04-03T00:15:35;4.20;;;3.80;;
1344;SDS011;15375;48.540;9.268;2023-04-03T00:18:01;5.40;;;3.67;;
1344;SDS011;15375;48.540;9.268;2023-04-03T00:20:27;3.97;;;3.57;;
1344;SDS011;15375;48.540;9.268;2023-04-03T00:22:53;5.63;;;4.10;;
1344;SDS011;15375;48.540;9.268;2023-04-03T00:25:18;4.33;;;3.93;;
1344;SDS011;15375;48.540;9.268;2023-04-03T00:27:44;3.87;;;3.47;;
1344;SDS011;15375;48.540;9.268;2023-04-03T00:30:10;4.03;;;3.40;;
1344;SDS011;15375;48.540;9.268;2023-04-03T00:32:38;7.77;;;3.57;;
1344;SDS011;15375;48.540;9.268;2023-04-03T00:35:03;4.70;;;3.83;;
1344;SDS011;15375;48.540;9.268;2023-04-03T00:37:30;4.50;;;4.10;;
1344;SDS011;15375;48.540;9.268;2023-04-03T00:39:55;4.13;;;3.77;;
1344;SDS011;15375;48.540;9.268;2023-04-03T00:42:21;4.60;;;4.10;;
1344;SDS011;15375;48.540;9.268;2023-04-03T00:47:13;5.97;;;4.63;;
1344;SDS011;15375;48.540;9.268;2023-04-03T00:49:40;4.27;;;3.87;;
1344;SDS011;15375;48.540;9.268;2023-04-03T00:52:09;4.50;;;4.10;;
1344;SDS011;15375;48.540;9.268;2023-04-03T00:54:38;4.67;;;4.27;;
1344;SDS011;15375;48.540;9.268;2023-04-03T00:57:07;7.17;;;4.77;;
1344;SDS011;15375;48.540;9.268;2023-04-03T00:59:34;4.13;;;3.80;;
1344;SDS011;15375;48.540;9.268;2023-04-03T01:02:03;4.43;;;4.03;;
1344;SDS011;15375;48.540;9.268;2023-04-03T01:04:30;5.03;;;4.53;;
1344;SDS011;15375;48.540;9.268;2023-04-03T01:06:58;6.20;;;4.60;;
1344;SDS011;15375;48.540;9.268;2023-04-03T01:09:28;4.83;;;4.13;;
1344;SDS011;15375;48.540;9.268;2023-04-03T01:12:13;4.47;;;4.00;;
1344;SDS011;15375;48.540;9.268;2023-04-03T01:14:41;5.13;;;4.50;;
1344;SDS011;15375;48.540;9.268;2023-04-03T01:20:42;4.07;;;3.70;;
1344;SDS011;15375;48.540;9.268;2023-04-03T01:25:26;4.40;;;3.90;;
1344;SDS011;15375;48.540;9.268;2023-04-03T01:27:52;4.73;;;4.23;;
1344;SDS011;15375;48.540;9.268;2023-04-03T01:30:18;4.43;;;4.03;;
1344;SDS011;15375;48.540;9.268;2023-04-03T01:32:45;5.43;;;3.67;;
1344;SDS011;15375;48.540;9.268;2023-04-03T01:35:10;4.97;;;4.47;;
1344;SDS011;15375;48.540;9.268;2023-04-03T01:37:36;4.10;;;3.43;;
1344;SDS011;15375;48.540;9.268;2023-04-03T01:40:01;4.30;;;3.90;;
1344;SDS011;15375;48.540;9.268;2023-04-03T01:42:27;4.70;;;3.97;;
1344;SDS011;15375;48.540;9.268;2023-04-03T01:44:54;5.10;;;4.60;;
1344;SDS011;15375;48.540;9.268;2023-04-03T01:47:19;4.83;;;4.20;;
1344;SDS011;15375;48.540;9.268;2023-04-03T01:49:45;4.80;;;4.30;;
1344;SDS011;15375;48.540;9.268;2023-04-03T01:52:10;7.57;;;3.97;;
1344;SDS011;15375;48.540;9.268;2023-04-03T01:54:36;6.03;;;4.00;;
1344;SDS011;15375;48.540;9.268;2023-04-03T01:57:02;7.80;;;4.90;;
1344;SDS011;15375;48.540;9.268;2023-04-03T01:59:27;6.37;;;3.90;;
1344;SDS011;15375;48.540;9.268;2023-04-03T02:01:53;6.13;;;3.90;;
1344;SDS011;15375;48.540;9.268;2023-04-03T02:04:18;5.57;;;4.47;;
1344;SDS011;15375;48.540;9.268;2023-04-03T02:06:44;5.70;;;5.00;;
1344;SDS011;15375;48.540;9.268;2023-04-03T02:09:10;4.70;;;4.17;;
1344;SDS011;15375;48.540;9.268;2023-04-03T02:11:35;4.83;;;4.40;;
1344;SDS011;15375;48.540;9.268;2023-04-03T02:14:00;5.07;;;4.17;;
1344;SDS011;15375;48.540;9.268;2023-04-03T02:16:26;7.10;;;4.20;;
1344;SDS011;15375;48.540;9.268;2023-04-03T02:18:51;4.03;;;2.87;;
1344;SDS011;15375;48.540;9.268;2023-04-03T02:21:17;4.20;;;3.80;;
1344;SDS011;15375;48.540;9.268;2023-04-03T02:23:42;4.97;;;4.17;;
1344;SDS011;15375;48.540;9.268;2023-04-03T02:26:09;4.17;;;3.77;;
1344;SDS011;15375;48.540;9.268;2023-04-03T02:28:36;6.13;;;4.27;;
1344;SDS011;15375;48.540;9.268;2023-04-03T02:31:03;4.70;;;4.20;;
1344;SDS011;15375;48.540;9.268;2023-04-03T02:33:29;4.70;;;4.30;;
1344;SDS011;15375;48.540;9.268;2023-04-03T02:35:55;4.77;;;4.30;;
1344;SDS011;15375;48.540;9.268;2023-04-03T02:38:22;5.03;;;4.40;;
1344;SDS011;15375;48.540;9.268;2023-04-03T02:40:48;6.27;;;4.10;;
1344;SDS011;15375;48.540;9.268;2023-04-03T02:43:13;5.30;;;4.80;;
1344;SDS011;15375;48.540;9.268;2023-04-03T02:45:38;4.40;;;3.77;;
1344;SDS011;15375;48.540;9.268;2023-04-03T02:48:04;5.73;;;5.13;;
1344;SDS011;15375;48.540;9.268;2023-04-03T02:50:30;5.50;;;4.80;;
1344;SDS011;15375;48.540;9.268;2023-04-03T02:52:55;5.13;;;4.63;;
1344;SDS011;15375;48.540;9.268;2023-04-03T02:55:20;5.30;;;4.50;;
1344;SDS011;15375;48.540;9.268;2023-04-03T02:57:46;5.90;;;3.87;;
1344;SDS011;15375;48.540;9.268;2023-04-03T03:00:11;5.50;;;4.13;;
1344;SDS011;15375;48.540;9.268;2023-04-03T03:02:37;5.40;;;4.43;;
1344;SDS011;15375;48.540;9.268;2023-04-03T03:05:03;5.07;;;4.57;;
1344;SDS011;15375;48.540;9.268;2023-04-03T03:07:28;7.10;;;5.33;;
1344;SDS011;15375;48.540;9.268;2023-04-03T03:09:54;5.40;;;4.17;;
1344;SDS011;15375;48.540;9.268;2023-04-03T03:12:19;5.83;;;4.80;;
1344;SDS011;15375;48.540;9.268;2023-04-03T03:14:46;6.17;;;5.60;;
1344;SDS011;15375;48.540;9.268;2023-04-03T03:17:13;6.10;;;4.87;;
1344;SDS011;15375;48.540;9.268;2023-04-03T03:19:38;5.77;;;5.10;;
1344;SDS011;15375;48.540;9.268;2023-04-03T03:22:04;6.63;;;4.67;;
1344;SDS011;15375;48.540;9.268;2023-04-03T03:24:29;5.10;;;4.60;;
1344;SDS011;15375;48.540;9.268;2023-04-03T03:26:54;5.53;;;3.93;;
1344;SDS011;15375;48.540;9.268;2023-04-03T03:29:20;4.97;;;4.33;;
1344;SDS011;15375;48.540;9.268;2023-04-03T03:31:45;5.30;;;4.80;;
1344;SDS011;15375;48.540;9.268;2023-04-03T03:34:11;6.23;;;4.90;;
1344;SDS011;15375;48.540;9.268;2023-04-03T03:36:37;5.33;;;4.27;;
1344;SDS011;15375;48.540;9.268;2023-04-03T03:39:02;4.67;;;4.07;;
1344;SDS011;15375;48.540;9.268;2023-04-03T03:41:28;5.07;;;4.30;;
1344;SDS011;15375;48.540;9.268;2023-04-03T03:43:53;3.23;;;2.93;;
1344;SDS011;15375;48.540;9.268;2023-04-03T03:46:19;6.33;;;4.30;;
1344;SDS011;15375;48.540;9.268;2023-04-03T03:48:44;5.30;;;4.80;;
1344;SDS011;15375;48.540;9.268;2023-04-03T03:51:10;5.37;;;4.30;;
1344;SDS011;15375;48.540;9.268;2023-04-03T03:53:35;8.97;;;5.07;;
1344;SDS011;15375;48.540;9.268;2023-04-03T03:56:01;6.13;;;4.40;;
1344;SDS011;15375;48.540;9.268;2023-04-03T03:58:27;6.03;;;4.90;;
1344;SDS011;15375;48.540;9.268;2023-04-03T04:00:52;3.67;;;3.03;;
1344;SDS011;15375;48.540;9.268;2023-04-03T04:03:17;4.40;;;4.00;;
1344;SDS011;15375;48.540;9.268;2023-04-03T04:05:43;4.73;;;4.23;;
1344;SDS011;15375;48.540;9.268;2023-04-03T04:08:08;6.50;;;4.20;;
1344;SDS011;15375;48.540;9.268;2023-04-03T04:10:34;6.53;;;4.87;;
1344;SDS011;15375;48.540;9.268;2023-04-03T04:13:02;4.27;;;3.73;;
1344;SDS011;15375;48.540;9.268;2023-04-03T04:15:27;4.97;;;4.23;;
1344;SDS011;15375;48.540;9.268;2023-04-03T04:17:53;4.30;;;3.60;;
1344;SDS011;15375;48.540;9.268;2023-04-03T04:20:18;4.60;;;4.20;;
1344;SDS011;15375;48.540;9.268;2023-04-03T04:22:44;4.83;;;3.73;;
1344;SDS011;15375;48.540;9.268;2023-04-03T04:25:09;5.67;;;5.17;;
1344;SDS011;15375;48.540;9.268;2023-04-03T04:27:35;4.20;;;3.73;;
1344;SDS011;15375;48.540;9.268;2023-04-03T04:30:02;5.30;;;3.90;;
1344;SDS011;15375;48.540;9.268;2023-04-03T04:32:28;4.53;;;3.47;;
1344;SDS011;15375;48.540;9.268;2023-04-03T04:34:53;4.53;;;4.13;;
1344;SDS011;15375;48.540;9.268;2023-04-03T04:37:19;7.00;;;3.43;;
1344;SDS011;15375;48.540;9.268;2023-04-03T04:39:44;4.70;;;4.00;;
1344;SDS011;15375;48.540;9.268;2023-04-03T04:42:10;4.97;;;4.00;;
1344;SDS011;15375;48.540;9.268;2023-04-03T04:44:37;4.73;;;4.17;;
1344;SDS011;15375;48.540;9.268;2023-04-03T04:47:03;4.87;;;4.27;;
1344;SDS011;15375;48.540;9.268;2023-04-03T04:49:29;4.07;;;3.67;;
1344;SDS011;15375;48.540;9.268;2023-04-03T04:51:54;5.73;;;4.70;;
1344;SDS011;15375;48.540;9.268;2023-04-03T04:54:20;3.80;;;3.50;;
1344;SDS011;15375;48.540;9.268;2023-04-03T04:56:46;4.07;;;3.37;;
1344;SDS011;15375;48.540;9.268;2023-04-03T04:59:11;4.47;;;4.03;;
1344;SDS011;15375;48.540;9.268;2023-04-03T05:01:37;5.07;;;4.00;;
1344;SDS011;15375;48.540;9.268;2023-04-03T05:04:03;4.70;;;3.87;;
1344;SDS011;15375;48.540;9.268;2023-04-03T05:06:29;7.70;;;5.30;;
1344;SDS011;15375;48.540;9.268;2023-04-03T05:08:56;8.03;;;7.23;;
1344;SDS011;15375;48.540;9.268;2023-04-03T05:11:22;7.07;;;4.10;;
1344;SDS011;15375;48.540;9.268;2023-04-03T05:13:48;4.23;;;3.40;;
1344;SDS011;15375;48.540;9.268;2023-04-03T05:16:13;4.20;;;3.80;;
1344;SDS011;15375;48.540;9.268;2023-04-03T05:18:39;3.87;;;3.50;;
1344;SDS011;15375;48.540;9.268;2023-04-03T05:21:04;6.20;;;4.10;;
1344;SDS011;15375;48.540;9.268;2023-04-03T05:23:30;5.30;;;4.27;;
1344;SDS011;15375;48.540;9.268;2023-04-03T05:25:55;4.20;;;3.53;;
1344;SDS011;15375;48.540;9.268;2023-04-03T05:28:21;4.67;;;4.17;;
1344;SDS011;15375;48.540;9.268;2023-04-03T05:30:52;6.73;;;3.40;;
1344;SDS011;15375;48.540;9.268;2023-04-03T05:33:19;4.07;;;3.43;;
1344;SDS011;15375;48.540;9.268;2023-04-03T05:35:44;3.90;;;3.60;;
1344;SDS011;15375;48.540;9.268;2023-04-03T05:38:10;4.13;;;3.80;;
1344;SDS011;15375;48.540;9.268;2023-04-03T05:40:35;3.13;;;2.93;;
1344;SDS011;15375;48.540;9.268;2023-04-03T05:43:01;3.33;;;3.07;;
1344;SDS011;15375;48.540;9.268;2023-04-03T05:45:26;4.80;;;3.53;;
1344;SDS011;15375;48.540;9.268;2023-04-03T05:47:52;2.63;;;2.43;;
1344;SDS011;15375;48.540;9.268;2023-04-03T05:50:17;7.53;;;3.70;;
1344;SDS011;15375;48.540;9.268;2023-04-03T05:52:44;3.33;;;2.93;;
1344;SDS011;15375;48.540;9.268;2023-04-03T05:55:12;3.77;;;3.30;;
1344;SDS011;15375;48.540;9.268;2023-04-03T05:57:37;4.73;;;3.33;;
1344;SDS011;15375;48.540;9.268;2023-04-03T06:00:04;4.33;;;3.10;;
1344;SDS011;15375;48.540;9.268;2023-04-03T06:02:31;3.37;;;2.87;;
1344;SDS011;15375;48.540;9.268;2023-04-03T06:04:56;3.77;;;3.10;;
1344;SDS011;15375;48.540;9.268;2023-04-03T06:07:22;3.33;;;3.07;;
1344;SDS011;15375;48.540;9.268;2023-04-03T06:09:54;2.87;;;2.67;;
1344;SDS011;15375;48.540;9.268;2023-04-03T06:12:21;2.90;;;2.57;;
1344;SDS011;15375;48.540;9.268;2023-04-03T06:14:47;3.23;;;2.67;;
1344;SDS011;15375;48.540;9.268;2023-04-03T06:17:13;3.30;;;3.00;;
1344;SDS011;15375;48.540;9.268;2023-04-03T06:19:39;3.90;;;3.17;;
1344;SDS011;15375;48.540;9.268;2023-04-03T06:22:04;3.77;;;2.53;;
1344;SDS011;15375;48.540;9.268;2023-04-03T06:24:30;3.13;;;2.93;;
1344;SDS011;15375;48.540;9.268;2023-04-03T06:26:56;3.60;;;2.50;;
1344;SDS011;15375;48.540;9.268;2023-04-03T06:29:22;3.50;;;3.13;;
1344;SDS011;15375;48.540;9.268;2023-04-03T06:31:48;3.83;;;3.53;;
1344;SDS011;15375;48.540;9.268;2023-04-03T06:34:15;4.13;;;2.80;;
1344;SDS011;15375;48.540;9.268;2023-04-03T06:36:41;3.63;;;3.20;;
1344;SDS011;15375;48.540;9.268;2023-04-03T06:39:08;2.80;;;2.60;;
1344;SDS011;15375;48.540;9.268;2023-04-03T06:41:38;3.80;;;2.80;;
1344;SDS011;15375;48.540;9.268;2023-04-03T06:44:03;6.43;;;3.20;;
1344;SDS011;15375;48.540;9.268;2023-04-03T06:46:33;2.90;;;2.70;;
1344;SDS011;15375;48.540;9.268;2023-04-03T06:48:58;2.97;;;2.67;;
1344;SDS011;15375;48.540;9.268;2023-04-03T06:51:24;3.47;;;2.63;;
1344;SDS011;15375;48.540;9.268;2023-04-03T06:53:55;6.07;;;3.50;;
1344;SDS011;15375;48.540;9.268;2023-04-03T06:56:24;3.70;;;3.40;;
1344;SDS011;15375;48.540;9.268;2023-04-03T06:58:51;4.10;;;2.87;;
1344;SDS011;15375;48.540;9.268;2023-04-03T07:01:19;3.37;;;3.07;;
1344;SDS011;15375;48.540;9.268;2023-04-03T07:03:44;3.33;;;2.60;;
1344;SDS011;15375;48.540;9.268;2023-04-03T07:06:12;2.83;;;2.63;;
1344;SDS011;15375;48.540;9.268;2023-04-03T07:08:38;3.57;;;2.60;;
1344;SDS011;15375;48.540;9.268;2023-04-03T07:11:04;3.73;;;2.80;;
1344;SDS011;15375;48.540;9.268;2023-04-03T07:13:29;3.20;;;2.07;;
1344;SDS011;15375;48.540;9.268;2023-04-03T07:15:55;3.63;;;2.97;;
1344;SDS011;15375;48.540;9.268;2023-04-03T07:18:20;3.60;;;2.53;;
1344;SDS011;15375;48.540;9.268;2023-04-03T07:20:46;2.83;;;2.63;;
1344;SDS011;15375;48.540;9.268;2023-04-03T07:23:12;3.20;;;2.80;;
1344;SDS011;15375;48.540;9.268;2023-04-03T07:25:41;1.90;;;1.80;;
1344;SDS011;15375;48.540;9.268;2023-04-03T07:28:08;4.00;;;3.23;;
1344;SDS011;15375;48.540;9.268;2023-04-03T07:30:33;2.67;;;2.47;;
1344;SDS011;15375;48.540;9.268;2023-04-03T07:32:59;3.03;;;2.73;;
1344;SDS011;15375;48.540;9.268;2023-04-03T07:35:25;3.70;;;2.30;;
1344;SDS011;15375;48.540;9.268;2023-04-03T07:37:51;4.27;;;3.13;;
1344;SDS011;15375;48.540;9.268;2023-04-03T07:40:16;3.40;;;3.10;;
1344;SDS011;15375;48.540;9.268;2023-04-03T07:42:42;5.53;;;3.20;;
1344;SDS011;15375;48.540;9.268;2023-04-03T07:45:07;3.73;;;3.13;;
1344;SDS011;15375;48.540;9.268;2023-04-03T07:47:33;4.03;;;2.70;;
1344;SDS011;15375;48.540;9.268;2023-04-03T07:49:58;4.53;;;2.63;;
1344;SDS011;15375;48.540;9.268;2023-04-03T07:52:24;4.83;;;2.10;;
1344;SDS011;15375;48.540;9.268;2023-04-03T07:54:50;4.43;;;3.03;;
1344;SDS011;15375;48.540;9.268;2023-04-03T07:57:15;3.03;;;2.80;;
1344;SDS011;15375;48.540;9.268;2023-04-03T07:59:41;2.63;;;2.43;;
1344;SDS011;15375;48.540;9.268;2023-04-03T08:02:09;2.80;;;2.10;;
1344;SDS011;15375;48.540;9.268;2023-04-03T08:04:35;3.83;;;2.97;;
1344;SDS011;15375;48.540;9.268;2023-04-03T08:07:00;3.13;;;2.37;;
1344;SDS011;15375;48.540;9.268;2023-04-03T08:09:26;2.83;;;2.53;;
1344;SDS011;15375;48.540;9.268;2023-04-03T08:11:51;2.90;;;2.10;;
1344;SDS011;15375;48.540;9.268;2023-04-03T08:14:18;2.27;;;2.07;;
1344;SDS011;15375;48.540;9.268;2023-04-03T08:16:45;3.40;;;3.00;;
1344;SDS011;15375;48.540;9.268;2023-04-03T08:19:11;3.30;;;3.00;;
1344;SDS011;15375;48.540;9.268;2023-04-03T08:21:39;4.80;;;3.10;;
1344;SDS011;15375;48.540;9.268;2023-04-03T08:24:06;5.37;;;2.60;;
1344;SDS011;15375;48.540;9.268;2023-04-03T08:26:31;6.63;;;3.40;;
1344;SDS011;15375;48.540;9.268;2023-04-03T08:28:57;3.13;;;2.83;;
1344;SDS011;15375;48.540;9.268;2023-04-03T08:31:22;2.77;;;2.50;;
1344;SDS011;15375;48.540;9.268;2023-04-03T08:33:48;2.57;;;2.37;;
1344;SDS011;15375;48.540;9.268;2023-04-03T08:36:18;5.50;;;3.27;;
1344;SDS011;15375;48.540;9.268;2023-04-03T08:38:44;3.40;;;3.03;;
1344;SDS011;15375;48.540;9.268;2023-04-03T08:41:28;3.00;;;2.70;;
1344;SDS011;15375;48.540;9.268;2023-04-03T08:44:14;7.53;;;2.57;;
1344;SDS011;15375;48.540;9.268;2023-04-03T08:47:11;2.07;;;1.97;;
1344;SDS011;15375;48.540;9.268;2023-04-03T08:58:05;3.57;;;3.27;;
1344;SDS011;15375;48.540;9.268;2023-04-03T09:00:49;3.93;;;2.93;;
1344;SDS011;15375;48.540;9.268;2023-04-03T09:03:17;2.23;;;2.10;;
1344;SDS011;15375;48.540;9.268;2023-04-03T09:08:29;1.47;;;1.37;;
1344;SDS011;15375;48.540;9.268;2023-04-03T09:16:46;2.60;;;2.40;;
1344;SDS011;15375;48.540;9.268;2023-04-03T09:21:56;3.10;;;2.80;;
1344;SDS011;15375;48.540;9.268;2023-04-03T09:24:22;4.00;;;2.60;;
1344;SDS011;15375;48.540;9.268;2023-04-03T09:26:53;2.70;;;2.50;;
1344;SDS011;15375;48.540;9.268;2023-04-03T09:29:24;3.23;;;2.93;;
1344;SDS011;15375;48.540;9.268;2023-04-03T09:31:57;6.33;;;2.80;;
1344;SDS011;15375;48.540;9.268;2023-04-03T09:34:32;2.87;;;2.60;;
1344;SDS011;15375;48.540;9.268;2023-04-03T09:37:01;2.30;;;2.10;;
1344;SDS011;15375;48.540;9.268;2023-04-03T09:39:31;3.80;;;2.60;;
1344;SDS011;15375;48.540;9.268;2023-04-03T09:42:15;3.80;;;3.00;;
1344;SDS011;15375;48.540;9.268;2023-04-03T09:44:48;3.30;;;2.97;;
1344;SDS011;15375;48.540;9.268;2023-04-03T09:47:27;3.77;;;3.27;;
1344;SDS011;15375;48.540;9.268;2023-04-03T09:52:42;3.33;;;2.53;;
1344;SDS011;15375;48.540;9.268;2023-04-03T09:55:14;4.03;;;2.93;;
1344;SDS011;15375;48.540;9.268;2023-04-03T09:57:40;4.30;;;3.40;;
1344;SDS011;15375;48.540;9.268;2023-04-03T10:00:10;4.60;;;3.10;;
1344;SDS011;15375;48.540;9.268;2023-04-03T10:02:49;4.40;;;2.93;;
1344;SDS011;15375;48.540;9.268;2023-04-03T10:05:32;2.77;;;2.57;;
1344;SDS011;15375;48.540;9.268;2023-04-03T10:10:46;3.60;;;2.97;;
1344;SDS011;15375;48.540;9.268;2023-04-03T10:13:14;4.87;;;3.00;;
1344;SDS011;15375;48.540;9.268;2023-04-03T10:15:46;2.50;;;2.30;;
1344;SDS011;15375;48.540;9.268;2023-04-03T10:21:44;3.30;;;3.10;;
1344;SDS011;15375;48.540;9.268;2023-04-03T10:24:02;3.23;;;2.93;;
1344;SDS011;15375;48.540;9.268;2023-04-03T10:38:01;3.57;;;2.70;;
1344;SDS011;15375;48.540;9.268;2023-04-03T10:43:49;2.17;;;2.07;;
1344;SDS011;15375;48.540;9.268;2023-04-03T10:46:11;3.30;;;2.67;;
1344;SDS011;15375;48.540;9.268;2023-04-03T10:51:33;6.40;;;2.67;;
1344;SDS011;15375;48.540;9.268;2023-04-03T10:56:54;2.00;;;1.90;;
1344;SDS011;15375;48.540;9.268;2023-04-03T10:59:50;2.63;;;2.47;;
1344;SDS011;15375;48.540;9.268;2023-04-03T11:04:44;4.37;;;2.97;;
1344;SDS011;15375;48.540;9.268;2023-04-03T11:09:46;3.80;;;3.07;;
1344;SDS011;15375;48.540;9.268;2023-04-03T11:12:27;2.77;;;2.23;;
1344;SDS011;15375;48.540;9.268;2023-04-03T11:15:00;3.63;;;2.40;;
1344;SDS011;15375;48.540;9.268;2023-04-03T11:17:31;4.23;;;2.30;;
1344;SDS011;15375;48.540;9.268;2023-04-03T11:22:36;3.57;;;2.13;;
1344;SDS011;15375;48.540;9.268;2023-04-03T11:25:05;1.83;;;1.70;;
1344;SDS011;15375;48.540;9.268;2023-04-03T11:27:43;4.20;;;1.87;;
1344;SDS011;15375;48.540;9.268;2023-04-03T11:30:16;2.30;;;1.10;;
1344;SDS011;15375;48.540;9.268;2023-04-03T11:35:45;8.40;;;1.77;;
1344;SDS011;15375;48.540;9.268;2023-04-03T11:38:16;2.37;;;2.17;;
1344;SDS011;15375;48.540;9.268;2023-04-03T11:40:47;1.33;;;1.23;;
1344;SDS011;15375;48.540;9.268;2023-04-03T11:45:55;2.27;;;2.13;;
1344;SDS011;15375;48.540;9.268;2023-04-03T11:50:53;3.80;;;2.43;;
1344;SDS011;15375;48.540;9.268;2023-04-03T11:53:35;2.70;;;2.37;;
1344;SDS011;15375;48.540;9.268;2023-04-03T12:04:19;9.23;;;2.60;;
1344;SDS011;15375;48.540;9.268;2023-04-03T12:12:48;4.70;;;1.70;;
1344;SDS011;15375;48.540;9.268;2023-04-03T12:17:46;3.70;;;2.37;;
1344;SDS011;15375;48.540;9.268;2023-04-03T12:29:36;5.70;;;2.93;;
1344;SDS011;15375;48.540;9.268;2023-04-03T12:44:00;3.20;;;2.90;;
1344;SDS011;15375;48.540;9.268;2023-04-03T12:46:24;3.40;;;1.80;;
1344;SDS011;15375;48.540;9.268;2023-04-03T12:48:58;2.30;;;1.73;;
1344;SDS011;15375;48.540;9.268;2023-04-03T12:54:03;2.00;;;1.67;;
1344;SDS011;15375;48.540;9.268;2023-04-03T12:56:38;2.50;;;2.30;;
1344;SDS011;15375;48.540;9.268;2023-04-03T13:01:59;2.73;;;2.53;;
1344;SDS011;15375;48.540;9.268;2023-04-03T13:04:29;1.63;;;1.53;;
1344;SDS011;15375;48.540;9.268;2023-04-03T13:06:56;2.23;;;1.60;;
1344;SDS011;15375;48.540;9.268;2023-04-03T13:09:23;2.23;;;2.03;;
1344;SDS011;15375;48.540;9.268;2023-04-03T13:11:58;5.13;;;2.23;;
1344;SDS011;15375;48.540;9.268;2023-04-03T13:14:27;2.80;;;2.13;;
1344;SDS011;15375;48.540;9.268;2023-04-03T13:17:05;3.10;;;1.90;;
1344;SDS011;15375;48.540;9.268;2023-04-03T13:19:35;4.43;;;2.13;;
1344;SDS011;15375;48.540;9.268;2023-04-03T13:22:06;4.40;;;2.07;;
1344;SDS011;15375;48.540;9.268;2023-04-03T13:24:41;1.67;;;1.57;;
1344;SDS011;15375;48.540;9.268;2023-04-03T13:27:11;2.00;;;1.90;;
1344;SDS011;15375;48.540;9.268;2023-04-03T13:29:38;2.87;;;1.97;;
1344;SDS011;15375;48.540;9.268;2023-04-03T13:32:04;2.13;;;1.90;;
1344;SDS011;15375;48.540;9.268;2023-04-03T13:34:42;4.40;;;2.63;;
1344;SDS011;15375;48.540;9.268;2023-04-03T13:37:22;2.57;;;2.30;;
1344;SDS011;15375;48.540;9.268;2023-04-03T13:42:34;2.10;;;1.90;;
1344;SDS011;15375;48.540;9.268;2023-04-03T13:47:44;2.00;;;1.90;;
1344;SDS011;15375;48.540;9.268;2023-04-03T13:52:49;3.00;;;2.70;;
1344;SDS011;15375;48.540;9.268;2023-04-03T13:55:26;5.23;;;4.03;;
1344;SDS011;15375;48.540;9.268;2023-04-03T13:57:58;7.90;;;5.97;;
1344;SDS011;15375;48.540;9.268;2023-04-03T14:00:28;2.23;;;2.13;;
1344;SDS011;15375;48.540;9.268;2023-04-03T14:02:56;3.07;;;2.40;;
1344;SDS011;15375;48.540;9.268;2023-04-03T14:05:22;2.53;;;2.33;;
1344;SDS011;15375;48.540;9.268;2023-04-03T14:07:50;2.60;;;2.40;;
1344;SDS011;15375;48.540;9.268;2023-04-03T14:10:16;2.00;;;1.80;;
1344;SDS011;15375;48.540;9.268;2023-04-03T14:12:42;2.27;;;2.07;;
1344;SDS011;15375;48.540;9.268;2023-04-03T14:15:15;3.20;;;2.60;;
1344;SDS011;15375;48.540;9.268;2023-04-03T14:17:44;2.40;;;2.20;;
1344;SDS011;15375;48.540;9.268;2023-04-03T14:20:14;2.17;;;1.97;;
1344;SDS011;15375;48.540;9.268;2023-04-03T14:22:40;2.70;;;2.20;;
1344;SDS011;15375;48.540;9.268;2023-04-03T14:25:06;4.20;;;2.53;;
1344;SDS011;15375;48.540;9.268;2023-04-03T14:27:39;3.63;;;2.50;;
1344;SDS011;15375;48.540;9.268;2023-04-03T14:30:17;4.37;;;2.83;;
1344;SDS011;15375;48.540;9.268;2023-04-03T14:32:47;3.10;;;2.47;;
1344;SDS011;15375;48.540;9.268;2023-04-03T14:35:13;2.20;;;2.00;;
1344;SDS011;15375;48.540;9.268;2023-04-03T14:37:39;2.20;;;2.10;;
1344;SDS011;15375;48.540;9.268;2023-04-03T14:40:05;1.70;;;1.60;;
1344;SDS011;15375;48.540;9.268;2023-04-03T14:42:33;2.93;;;2.57;;
1344;SDS011;15375;48.540;9.268;2023-04-03T14:45:01;2.40;;;2.20;;
1344;SDS011;15375;48.540;9.268;2023-04-03T14:47:28;3.50;;;2.50;;
1344;SDS011;15375;48.540;9.268;2023-04-03T14:49:55;2.83;;;2.20;;
1344;SDS011;15375;48.540;9.268;2023-04-03T14:52:27;3.37;;;3.00;;
1344;SDS011;15375;48.540;9.268;2023-04-03T14:54:57;4.00;;;1.83;;
1344;SDS011;15375;48.540;9.268;2023-04-03T14:57:24;2.07;;;1.53;;
1344;SDS011;15375;48.540;9.268;2023-04-03T14:59:51;2.67;;;2.37;;
1344;SDS011;15375;48.540;9.268;2023-04-03T15:04:56;2.87;;;1.90;;
1344;SDS011;15375;48.540;9.268;2023-04-03T15:07:23;2.37;;;2.00;;
1344;SDS011;15375;48.540;9.268;2023-04-03T15:09:50;3.53;;;2.27;;
1344;SDS011;15375;48.540;9.268;2023-04-03T15:12:16;2.30;;;1.90;;
1344;SDS011;15375;48.540;9.268;2023-04-03T15:14:42;2.27;;;2.07;;
1344;SDS011;15375;48.540;9.268;2023-04-03T15:17:10;4.63;;;2.33;;
1344;SDS011;15375;48.540;9.268;2023-04-03T15:19:40;3.60;;;2.90;;
1344;SDS011;15375;48.540;9.268;2023-04-03T15:22:06;2.53;;;2.33;;
1344;SDS011;15375;48.540;9.268;2023-04-03T15:24:31;2.23;;;1.97;;
1344;SDS011;15375;48.540;9.268;2023-04-03T15:26:57;4.43;;;2.80;;
1344;SDS011;15375;48.540;9.268;2023-04-03T15:29:23;2.80;;;2.50;;
1344;SDS011;15375;48.540;9.268;2023-04-03T15:31:49;2.63;;;2.10;;
1344;SDS011;15375;48.540;9.268;2023-04-03T15:34:17;4.33;;;2.67;;
1344;SDS011;15375;48.540;9.268;2023-04-03T15:36:43;3.07;;;2.67;;
1344;SDS011;15375;48.540;9.268;2023-04-03T15:39:08;3.17;;;2.73;;
1344;SDS011;15375;48.540;9.268;2023-04-03T15:41:33;2.00;;;1.80;;
1344;SDS011;15375;48.540;9.268;2023-04-03T15:43:59;3.50;;;2.97;;
1344;SDS011;15375;48.540;9.268;2023-04-03T15:46:24;5.17;;;2.27;;
1344;SDS011;15375;48.540;9.268;2023-04-03T15:48:49;3.30;;;3.00;;
1344;SDS011;15375;48.540;9.268;2023-04-03T15:51:15;3.70;;;2.63;;
1344;SDS011;15375;48.540;9.268;2023-04-03T15:53:40;2.97;;;2.70;;
1344;SDS011;15375;48.540;9.268;2023-04-03T15:56:07;2.23;;;1.90;;
1344;SDS011;15375;48.540;9.268;2023-04-03T15:58:34;3.27;;;2.60;;
1344;SDS011;15375;48.540;9.268;2023-04-03T16:01:00;2.30;;;2.10;;
1344;SDS011;15375;48.540;9.268;2023-04-03T16:03:26;3.13;;;2.60;;
1344;SDS011;15375;48.540;9.268;2023-04-03T16:05:51;2.90;;;2.60;;
1344;SDS011;15375;48.540;9.268;2023-04-03T16:08:17;2.47;;;1.57;;
1344;SDS011;15375;48.540;9.268;2023-04-03T16:10:43;3.37;;;2.47;;
1344;SDS011;15375;48.540;9.268;2023-04-03T16:13:10;2.20;;;2.00;;
1344;SDS011;15375;48.540;9.268;2023-04-03T16:15:36;3.00;;;2.43;;
1344;SDS011;15375;48.540;9.268;2023-04-03T16:18:02;1.80;;;1.70;;
1344;SDS011;15375;48.540;9.268;2023-04-03T16:20:28;1.93;;;1.80;;
1344;SDS011;15375;48.540;9.268;2023-04-03T16:22:55;2.77;;;2.30;;
1344;SDS011;15375;48.540;9.268;2023-04-03T16:25:22;1.57;;;1.47;;
1344;SDS011;15375;48.540;9.268;2023-04-03T16:27:47;2.90;;;2.17;;
1344;SDS011;15375;48.540;9.268;2023-04-03T16:30:13;2.03;;;1.83;;
1344;SDS011;15375;48.540;9.268;2023-04-03T16:32:38;2.93;;;2.33;;
1344;SDS011;15375;48.540;9.268;2023-04-03T16:35:05;6.27;;;2.50;;
1344;SDS011;15375;48.540;9.268;2023-04-03T16:37:31;3.30;;;2.40;;
1344;SDS011;15375;48.540;9.268;2023-04-03T16:39:56;4.07;;;2.73;;
1344;SDS011;15375;48.540;9.268;2023-04-03T16:42:23;2.40;;;1.70;;
1344;SDS011;15375;48.540;9.268;2023-04-03T16:44:49;2.77;;;2.63;;
1344;SDS011;15375;48.540;9.268;2023-04-03T16:47:14;2.53;;;1.70;;
1344;SDS011;15375;48.540;9.268;2023-04-03T16:49:44;3.60;;;2.10;;
1344;SDS011;15375;48.540;9.268;2023-04-03T16:52:09;2.03;;;1.60;;
1344;SDS011;15375;48.540;9.268;2023-04-03T16:54:35;4.57;;;2.17;;
1344;SDS011;15375;48.540;9.268;2023-04-03T16:57:00;3.10;;;2.00;;
1344;SDS011;15375;48.540;9.268;2023-04-03T16:59:26;2.53;;;2.30;;
1344;SDS011;15375;48.540;9.268;2023-04-03T17:01:51;4.90;;;2.07;;
1344;SDS011;15375;48.540;9.268;2023-04-03T17:04:16;4.73;;;2.53;;
1344;SDS011;15375;48.540;9.268;2023-04-03T17:06:42;2.37;;;2.00;;
1344;SDS011;15375;48.540;9.268;2023-04-03T17:09:07;3.40;;;2.23;;